Time;durP1;ratioP1;P1;durP2;ratioP2;P2;SDS_P1;SDS_P2;PMS_P1;PMS_P2;Temp;Humidity;BMP_temperature;BMP_pressure;BME280_temperature;BME280_humidity;BME280_pressure;Samples;Min_cycle;Max_cycle;Signal;HPM_P1;HPM_P2
2021/09/13 00:01:58;;;;;;;5.03;1.98;;;16.20;99.90;;;;;;5050068;28;20092;-65
2021/09/13 00:04:23;;;;;;;6.03;2.10;;;16.20;99.90;;;;;;5049625;28;20029;-65
2021/09/13 00:06:49;;;;;;;7.00;2.28;;;16.10;99.90;;;;;;5032906;28;20104;-64
2021/09/13 00:09:15;;;;;;;4.22;2.10;;;16.20;99.90;;;;;;5053145;28;20119;-65
2021/09/13 00:11:40;;;;;;;6.25;2.25;;;16.20;99.90;;;;;;5055559;28;20065;-64
2021/09/13 00:14:06;;;;;;;8.90;2.58;;;16.20;99.90;;;;;;5051917;28;20029;-63
2021/09/13 00:16:32;;;;;;;7.47;2.33;;;16.20;99.90;;;;;;5050220;28;20044;-65
2021/09/13 00:18:57;;;;;;;5.03;2.28;;;16.20;99.90;;;;;;5049669;28;20033;-64
2021/09/13 00:21:23;;;;;;;7.28;2.63;;;16.20;99.90;;;;;;5050198;28;20151;-65
2021/09/13 00:23:49;;;;;;;4.57;1.88;;;16.20;99.90;;;;;;5049228;28;20505;-64
2021/09/13 00:26:14;;;;;;;4.57;2.10;;;16.20;99.90;;;;;;5050040;28;20605;-65
2021/09/13 00:28:40;;;;;;;5.85;2.40;;;16.20;99.90;;;;;;5054210;28;20033;-64
2021/09/13 00:31:06;;;;;;;2.67;1.83;;;16.20;99.90;;;;;;5048189;28;20078;-64
2021/09/13 00:33:32;;;;;;;7.50;2.50;;;16.20;99.90;;;;;;5054808;28;20506;-64
2021/09/13 00:35:57;;;;;;;5.88;2.50;;;16.20;99.90;;;;;;5055720;28;20108;-63
2021/09/13 00:38:23;;;;;;;5.35;2.25;;;16.10;99.90;;;;;;5049671;28;20028;-65
2021/09/13 00:40:49;;;;;;;5.40;2.42;;;16.10;99.90;;;;;;5051486;28;20040;-65
2021/09/13 00:43:16;;;;;;;7.72;2.00;;;16.10;99.90;;;;;;5052475;28;20028;-65
2021/09/13 00:45:41;;;;;;;4.82;2.20;;;16.10;99.90;;;;;;5055326;28;20047;-65
2021/09/13 00:48:07;;;;;;;5.55;2.30;;;16.10;99.90;;;;;;5054335;28;20052;-64
2021/09/13 00:50:33;;;;;;;5.65;2.42;;;16.10;99.90;;;;;;5049201;28;20040;-65
2021/09/13 00:52:59;;;;;;;9.10;2.60;;;16.10;99.90;;;;;;5049873;28;20033;-66
2021/09/13 00:55:26;;;;;;;9.65;2.50;;;16.00;99.90;;;;;;5056120;28;20043;-64
2021/09/13 00:57:54;;;;;;;5.97;2.20;;;16.00;99.90;;;;;;5053243;28;20036;-65
2021/09/13 01:00:20;;;;;;;6.72;3.08;;;16.00;99.90;;;;;;5046586;28;20107;-66
2021/09/13 01:02:46;;;;;;;5.57;2.50;;;16.10;99.90;;;;;;5051719;28;20478;-64
2021/09/13 01:05:12;;;;;;;6.00;2.42;;;16.10;99.90;;;;;;5050354;28;20029;-64
2021/09/13 01:07:38;;;;;;;5.25;2.72;;;16.10;99.90;;;;;;5053522;28;20028;-65
2021/09/13 01:10:06;;;;;;;6.00;2.55;;;16.10;99.90;;;;;;5049321;28;20036;-65
2021/09/13 01:12:33;;;;;;;8.82;2.65;;;16.10;99.90;;;;;;5056084;28;20044;-65
2021/09/13 01:14:58;;;;;;;7.82;3.13;;;16.10;99.90;;;;;;5051628;28;20033;-65
2021/09/13 01:17:24;;;;;;;6.97;3.42;;;16.10;99.90;;;;;;5050093;28;20119;-64
2021/09/13 01:19:50;;;;;;;7.30;2.75;;;16.20;99.90;;;;;;5056068;28;20532;-64
2021/09/13 01:22:18;;;;;;;6.28;3.35;;;16.20;99.90;;;;;;5050826;28;20094;-64
2021/09/13 01:24:44;;;;;;;4.93;3.20;;;16.20;99.90;;;;;;5035310;28;20143;-65
2021/09/13 01:27:12;;;;;;;8.20;3.50;;;16.20;99.90;;;;;;5051087;28;20025;-65
2021/09/13 01:29:38;;;;;;;8.77;3.97;;;16.10;99.90;;;;;;5048129;28;20024;-66
2021/09/13 01:32:05;;;;;;;8.65;3.60;;;16.20;99.90;;;;;;5059240;28;20777;-64
2021/09/13 01:34:31;;;;;;;7.15;3.38;;;16.10;99.90;;;;;;5056144;28;20033;-65
2021/09/13 01:36:57;;;;;;;5.85;3.08;;;16.20;99.90;;;;;;5052753;28;20052;-64
2021/09/13 01:39:23;;;;;;;5.05;2.85;;;16.20;99.90;;;;;;5055251;28;20052;-64
2021/09/13 01:41:50;;;;;;;7.22;3.65;;;16.20;99.90;;;;;;5048468;28;20028;-65
2021/09/13 01:44:16;;;;;;;9.25;3.30;;;16.10;99.90;;;;;;5050625;28;20027;-65
2021/09/13 01:46:43;;;;;;;6.15;3.20;;;16.20;99.90;;;;;;5050859;28;20041;-63
2021/09/13 01:49:13;;;;;;;8.95;3.47;;;16.20;99.90;;;;;;5046052;28;20067;-63
2021/09/13 01:51:39;;;;;;;8.10;3.55;;;16.10;99.90;;;;;;5054239;28;20029;-63
2021/09/13 01:54:06;;;;;;;5.22;3.50;;;16.10;99.90;;;;;;5047238;28;20039;-65
2021/09/13 01:56:32;;;;;;;5.70;3.30;;;16.10;99.90;;;;;;5049357;28;20029;-64
2021/09/13 01:58:59;;;;;;;8.57;3.25;;;16.20;99.90;;;;;;5048225;28;20373;-64
2021/09/13 02:01:25;;;;;;;7.68;3.35;;;16.20;99.90;;;;;;5046462;28;20029;-65
2021/09/13 02:03:51;;;;;;;6.78;3.63;;;16.20;99.90;;;;;;5053300;28;20052;-65
2021/09/13 02:06:17;;;;;;;9.00;3.70;;;16.20;99.90;;;;;;5043999;28;20068;-64
2021/09/13 02:08:43;;;;;;;6.55;3.97;;;16.20;99.90;;;;;;5048426;28;20025;-65
2021/09/13 02:11:09;;;;;;;5.72;3.25;;;16.20;99.90;;;;;;5050105;28;20029;-65
2021/09/13 02:13:36;;;;;;;7.00;3.63;;;16.20;99.90;;;;;;5049028;28;20064;-64
2021/09/13 02:16:02;;;;;;;4.68;3.42;;;16.20;99.90;;;;;;5048628;28;20055;-64
2021/09/13 02:18:27;;;;;;;7.07;3.95;;;16.20;99.90;;;;;;5051176;28;20644;-64
2021/09/13 02:20:53;;;;;;;7.60;4.18;;;16.20;99.90;;;;;;5057728;28;20033;-65
2021/09/13 02:23:19;;;;;;;10.32;5.45;;;16.20;99.90;;;;;;5052313;28;20029;-64
2021/09/13 02:25:45;;;;;;;8.35;3.72;;;16.20;99.90;;;;;;5048314;28;20032;-63
2021/09/13 02:28:11;;;;;;;8.60;4.30;;;16.20;99.90;;;;;;5046034;28;20025;-64
2021/09/13 02:30:37;;;;;;;6.63;3.38;;;16.20;99.90;;;;;;5053944;28;20064;-63
2021/09/13 02:33:03;;;;;;;4.90;3.25;;;16.20;99.90;;;;;;5056386;28;20056;-64
2021/09/13 02:35:29;;;;;;;6.22;3.40;;;16.20;99.90;;;;;;5046725;28;20033;-65
2021/09/13 02:37:55;;;;;;;5.55;3.80;;;16.20;99.90;;;;;;5048639;28;20044;-66
2021/09/13 02:40:21;;;;;;;6.63;3.22;;;16.10;99.90;;;;;;5046844;28;20041;-63
2021/09/13 02:42:49;;;;;;;6.25;4.45;;;16.20;99.90;;;;;;5052094;28;20041;-64
2021/09/13 02:45:15;;;;;;;6.90;4.43;;;16.10;99.90;;;;;;5048527;28;20430;-65
2021/09/13 02:47:41;;;;;;;6.05;3.85;;;16.10;99.90;;;;;;5052337;28;20938;-65
2021/09/13 02:50:07;;;;;;;9.75;4.72;;;16.10;99.90;;;;;;5046357;28;20040;-64
2021/09/13 02:52:34;;;;;;;11.35;4.85;;;16.10;99.90;;;;;;5079405;22;20063;-66
2021/09/13 02:55:00;;;;;;;5.80;4.18;;;16.10;99.90;;;;;;5064611;28;20024;-66
2021/09/13 02:57:25;;;;;;;7.82;5.55;;;16.10;99.90;;;;;;5064667;28;20091;-66
2021/09/13 02:59:51;;;;;;;7.35;5.00;;;16.10;99.90;;;;;;5065242;28;20035;-66
2021/09/13 03:02:17;;;;;;;7.78;5.72;;;16.10;99.90;;;;;;5070322;28;20048;-66
2021/09/13 03:04:43;;;;;;;6.50;4.95;;;16.10;99.90;;;;;;5081510;28;20039;-66
2021/09/13 03:07:08;;;;;;;9.15;5.25;;;16.10;99.90;;;;;;5082412;28;20373;-66
2021/09/13 03:09:34;;;;;;;7.22;5.65;;;16.10;99.90;;;;;;5082133;28;20070;-66
2021/09/13 03:12:02;;;;;;;9.50;5.78;;;16.10;99.90;;;;;;5082506;28;20063;-66
2021/09/13 03:14:28;;;;;;;9.15;5.82;;;16.10;99.90;;;;;;5083345;28;20028;-66
2021/09/13 03:16:55;;;;;;;8.18;5.65;;;16.10;99.90;;;;;;5082867;28;20103;-66
2021/09/13 03:19:20;;;;;;;10.38;6.55;;;16.10;99.90;;;;;;5086746;28;20032;-66
2021/09/13 03:21:46;;;;;;;8.95;5.72;;;16.10;99.90;;;;;;5068999;28;20031;-66
2021/09/13 03:24:12;;;;;;;13.30;6.47;;;16.10;99.90;;;;;;5085762;28;20021;-66
2021/09/13 03:26:37;;;;;;;8.40;5.88;;;16.10;99.90;;;;;;5085734;28;20512;-66
2021/09/13 03:29:03;;;;;;;8.82;6.25;;;16.10;99.90;;;;;;5085061;28;20016;-66
2021/09/13 03:31:29;;;;;;;7.88;5.13;;;16.00;99.90;;;;;;5085587;28;20365;-66
2021/09/13 03:33:55;;;;;;;8.85;5.13;;;16.10;99.90;;;;;;5086796;28;20056;-66
2021/09/13 03:36:21;;;;;;;9.48;5.35;;;16.10;99.90;;;;;;5082901;28;20559;-66
2021/09/13 03:38:46;;;;;;;8.23;5.07;;;16.00;99.90;;;;;;5084592;28;20032;-66
2021/09/13 03:41:12;;;;;;;7.25;5.38;;;16.10;99.90;;;;;;5086897;28;20393;-66
2021/09/13 03:43:39;;;;;;;8.57;5.45;;;16.10;99.90;;;;;;5086137;28;20119;-66
2021/09/13 03:46:04;;;;;;;8.15;5.32;;;16.10;99.90;;;;;;5085002;28;20028;-66
2021/09/13 03:48:30;;;;;;;6.53;5.68;;;16.10;99.90;;;;;;5084487;28;20039;-66
2021/09/13 03:50:56;;;;;;;9.45;5.70;;;16.10;99.90;;;;;;5086271;28;20043;-66
2021/09/13 03:53:21;;;;;;;7.85;5.95;;;16.10;99.90;;;;;;5085888;28;20070;-66
2021/09/13 03:55:48;;;;;;;10.25;5.72;;;16.10;99.90;;;;;;5089819;28;20924;-66
2021/09/13 03:58:13;;;;;;;8.88;6.28;;;16.10;99.90;;;;;;5088421;28;20486;-66
2021/09/13 04:00:39;;;;;;;9.07;5.90;;;16.10;99.90;;;;;;5084787;28;20031;-66
2021/09/13 04:03:09;;;;;;;12.82;6.28;;;16.20;99.90;;;;;;5085601;28;20103;-66
2021/09/13 04:05:41;;;;;;;10.65;6.50;;;16.10;99.90;;;;;;5081414;28;20035;-66
2021/09/13 04:13:35;;;;;;;9.18;6.60;;;16.10;99.90;;;;;;5085301;28;20106;-66
2021/09/13 04:16:01;;;;;;;10.05;5.43;;;16.10;99.90;;;;;;5085274;28;20513;-66
2021/09/13 04:18:27;;;;;;;10.18;6.20;;;16.10;99.90;;;;;;5083675;28;20088;-66
2021/09/13 04:20:52;;;;;;;9.32;6.47;;;16.00;99.90;;;;;;5084709;28;20042;-66
2021/09/13 04:23:18;;;;;;;11.15;5.80;;;16.00;99.90;;;;;;5084639;28;20028;-66
2021/09/13 04:25:44;;;;;;;16.05;5.78;;;16.00;99.90;;;;;;5084720;28;20456;-66
2021/09/13 04:28:09;;;;;;;9.85;5.85;;;16.00;99.90;;;;;;5065982;28;20470;-66
2021/09/13 04:30:35;;;;;;;8.80;5.63;;;16.00;99.90;;;;;;5084463;28;20036;-66
2021/09/13 04:33:01;;;;;;;10.05;6.57;;;16.00;99.90;;;;;;5087188;28;20108;-66
2021/09/13 04:35:26;;;;;;;9.82;5.93;;;16.00;99.90;;;;;;5086177;28;20027;-66
2021/09/13 04:37:52;;;;;;;6.90;5.20;;;16.00;99.90;;;;;;5086204;28;20481;-66
2021/09/13 04:40:18;;;;;;;10.52;5.65;;;16.00;99.90;;;;;;5085014;28;20032;-66
2021/09/13 04:42:43;;;;;;;8.77;5.47;;;16.00;99.90;;;;;;5083057;28;20562;-66
2021/09/13 04:45:09;;;;;;;9.98;5.97;;;16.00;99.90;;;;;;5085083;28;20020;-66
2021/09/13 04:47:35;;;;;;;13.07;6.05;;;16.00;99.90;;;;;;5085769;28;20039;-66
2021/09/13 04:50:01;;;;;;;8.55;5.13;;;16.00;99.90;;;;;;5082810;28;20024;-66
2021/09/13 04:52:26;;;;;;;9.05;5.70;;;16.00;99.90;;;;;;5083453;28;20032;-66
2021/09/13 04:54:52;;;;;;;7.57;5.82;;;16.10;99.90;;;;;;5086369;28;20046;-66
2021/09/13 04:57:18;;;;;;;10.68;6.85;;;16.10;99.90;;;;;;5083790;28;20032;-66
2021/09/13 04:59:43;;;;;;;9.20;6.85;;;16.10;99.90;;;;;;5082786;28;20035;-66
2021/09/13 05:02:09;;;;;;;12.77;6.20;;;16.10;99.90;;;;;;5083873;28;20047;-66
2021/09/13 05:04:35;;;;;;;9.93;6.40;;;16.10;99.90;;;;;;5087448;28;20043;-66
2021/09/13 05:07:02;;;;;;;10.43;6.22;;;16.10;99.90;;;;;;5087439;28;20020;-66
2021/09/13 05:09:28;;;;;;;10.32;6.68;;;16.10;99.90;;;;;;5069323;28;20036;-66
2021/09/13 05:11:54;;;;;;;10.68;6.88;;;16.10;99.90;;;;;;5082895;28;20381;-66
2021/09/13 05:14:20;;;;;;;10.07;6.43;;;16.10;99.90;;;;;;5082546;28;20039;-66
2021/09/13 05:16:46;;;;;;;8.75;6.20;;;16.10;99.90;;;;;;5083097;28;20429;-66
2021/09/13 05:19:12;;;;;;;13.40;6.72;;;16.10;99.90;;;;;;5081252;28;20028;-66
2021/09/13 05:21:38;;;;;;;10.93;7.22;;;16.10;99.90;;;;;;5083689;28;20094;-66
2021/09/13 05:24:05;;;;;;;10.82;6.32;;;16.20;99.90;;;;;;5082763;28;20103;-69
2021/09/13 05:26:32;;;;;;;9.48;6.15;;;16.20;99.90;;;;;;5081972;28;20025;-67
2021/09/13 05:28:57;;;;;;;10.55;6.10;;;16.20;99.90;;;;;;5083411;28;20066;-66
2021/09/13 05:31:23;;;;;;;9.40;5.90;;;16.20;99.90;;;;;;5082718;28;20067;-66
2021/09/13 05:33:49;;;;;;;13.43;6.47;;;16.20;99.90;;;;;;5085151;28;20531;-66
2021/09/13 05:36:14;;;;;;;9.25;6.15;;;16.20;99.90;;;;;;5083511;28;20551;-66
2021/09/13 05:38:40;;;;;;;10.88;6.28;;;16.20;99.90;;;;;;5084206;28;20032;-66
2021/09/13 05:41:06;;;;;;;14.48;6.30;;;16.20;99.90;;;;;;5083282;28;20042;-66
2021/09/13 05:43:31;;;;;;;10.32;5.80;;;16.20;99.90;;;;;;5083333;28;20017;-66
2021/09/13 05:45:57;;;;;;;11.27;5.40;;;16.20;99.90;;;;;;5082710;28;20521;-66
2021/09/13 05:48:26;;;;;;;10.45;5.75;;;16.30;99.90;;;;;;5083077;28;20056;-66
2021/09/13 05:50:52;;;;;;;8.38;5.13;;;16.30;99.90;;;;;;5079545;28;20534;-66
2021/09/13 05:53:18;;;;;;;10.60;5.50;;;16.30;99.90;;;;;;5081092;28;20048;-66
2021/09/13 05:55:44;;;;;;;10.05;5.28;;;16.30;99.90;;;;;;5083827;28;20046;-66
2021/09/13 05:58:10;;;;;;;9.80;4.78;;;16.30;99.90;;;;;;5086232;28;20031;-66
2021/09/13 06:00:36;;;;;;;9.35;5.43;;;16.30;99.90;;;;;;5064590;28;20482;-66
2021/09/13 06:03:02;;;;;;;9.30;4.97;;;16.30;99.90;;;;;;5076662;28;20097;-66
2021/09/13 06:05:28;;;;;;;8.98;4.82;;;16.30;99.90;;;;;;5085676;28;20074;-66
2021/09/13 06:07:54;;;;;;;6.45;4.13;;;16.40;99.90;;;;;;5084258;28;20635;-66
2021/09/13 06:10:20;;;;;;;6.68;4.18;;;16.40;99.90;;;;;;5082541;28;20032;-74
2021/09/13 06:12:46;;;;;;;10.27;3.97;;;16.50;99.90;;;;;;5084074;28;20461;-70
2021/09/13 06:15:11;;;;;;;9.55;4.45;;;16.60;99.90;;;;;;5086495;28;20036;-70
2021/09/13 06:17:37;;;;;;;9.68;4.93;;;16.60;99.90;;;;;;5081029;28;20473;-70
2021/09/13 06:20:04;;;;;;;12.35;4.75;;;16.60;99.90;;;;;;5085227;28;20036;-69
2021/09/13 06:22:31;;;;;;;11.25;4.82;;;16.60;99.90;;;;;;5085850;28;20055;-70
2021/09/13 06:24:57;;;;;;;7.60;4.03;;;16.60;99.90;;;;;;5085434;28;20051;-71
2021/09/13 06:27:23;;;;;;;7.00;3.35;;;16.60;99.90;;;;;;5083179;28;20417;-70
2021/09/13 06:29:49;;;;;;;10.20;4.07;;;16.60;99.90;;;;;;5084880;28;20031;-69
2021/09/13 06:32:15;;;;;;;6.65;3.67;;;16.60;99.90;;;;;;5085862;28;20032;-69
2021/09/13 06:34:41;;;;;;;7.25;3.60;;;16.60;99.90;;;;;;5088826;28;20445;-70
2021/09/13 06:37:07;;;;;;;8.73;3.70;;;16.60;99.90;;;;;;5084547;28;20074;-70
2021/09/13 06:39:33;;;;;;;10.70;3.92;;;16.70;99.90;;;;;;5090582;28;20497;-69
2021/09/13 06:41:58;;;;;;;10.40;3.78;;;16.60;99.90;;;;;;5089828;28;20058;-68
2021/09/13 06:44:25;;;;;;;7.55;3.17;;;16.70;99.90;;;;;;5068774;28;20048;-69
2021/09/13 06:47:04;;;;;;;7.55;3.33;;;16.70;99.90;;;;;;5085979;28;20084;-69
2021/09/13 06:49:30;;;;;;;6.20;3.03;;;16.60;99.90;;;;;;5080362;28;20020;-69
2021/09/13 06:51:56;;;;;;;9.65;2.90;;;16.60;99.90;;;;;;5079408;28;20029;-71
2021/09/13 06:54:22;;;;;;;5.45;2.40;;;16.60;99.90;;;;;;5082899;28;20530;-70
2021/09/13 06:56:48;;;;;;;6.97;2.45;;;16.60;99.90;;;;;;5081024;28;20459;-71
2021/09/13 06:59:14;;;;;;;27.67;13.10;;;16.60;99.90;;;;;;5064095;28;20032;-69
2021/09/13 07:01:40;;;;;;;20.95;11.88;;;16.60;99.90;;;;;;5081402;28;20489;-69
2021/09/13 07:04:06;;;;;;;20.05;10.27;;;16.70;99.90;;;;;;5087659;28;20021;-69
2021/09/13 07:06:32;;;;;;;8.65;4.90;;;16.70;99.90;;;;;;5085166;28;20016;-69
2021/09/13 07:08:58;;;;;;;9.43;4.20;;;16.70;99.90;;;;;;5064943;28;20032;-76
2021/09/13 07:11:24;;;;;;;6.93;2.65;;;16.70;99.90;;;;;;5082708;28;20028;-69
2021/09/13 07:13:50;;;;;;;8.70;2.35;;;16.70;99.90;;;;;;5083019;28;20035;-68
2021/09/13 07:16:16;;;;;;;7.03;2.35;;;16.70;99.60;;;;;;5082688;28;20420;-68
2021/09/13 07:18:41;;;;;;;4.00;1.48;;;16.80;99.60;;;;;;5078325;28;20111;-68
2021/09/13 07:21:07;;;;;;;9.02;2.65;;;16.80;99.50;;;;;;5079926;28;20050;-68
2021/09/13 07:23:33;;;;;;;6.38;2.13;;;16.80;99.30;;;;;;5082757;28;20431;-69
2021/09/13 07:25:59;;;;;;;4.68;1.63;;;16.80;99.20;;;;;;5083552;28;20473;-68
2021/09/13 07:28:24;;;;;;;4.50;1.90;;;16.80;99.10;;;;;;5080768;28;20025;-68
2021/09/13 07:30:50;;;;;;;5.07;2.22;;;16.80;99.10;;;;;;5078951;28;20196;-68
2021/09/13 07:33:16;;;;;;;6.53;2.28;;;16.80;99.00;;;;;;5066022;28;20026;-68
2021/09/13 07:35:41;;;;;;;5.63;1.98;;;16.80;99.10;;;;;;5082878;28;20546;-69
2021/09/13 07:38:07;;;;;;;6.45;2.15;;;16.80;99.00;;;;;;5088342;28;20083;-66
2021/09/13 07:40:33;;;;;;;6.75;1.80;;;16.90;99.10;;;;;;5082816;28;20043;-66
2021/09/13 07:42:58;;;;;;;3.83;2.03;;;16.90;98.90;;;;;;5084954;28;20031;-66
2021/09/13 07:45:24;;;;;;;11.50;3.13;;;16.90;98.80;;;;;;5079688;28;20069;-66
2021/09/13 07:47:51;;;;;;;7.40;1.90;;;16.90;98.60;;;;;;5080691;28;20504;-66
2021/09/13 07:50:17;;;;;;;5.40;2.03;;;16.80;98.30;;;;;;5081516;28;20474;-66
2021/09/13 07:52:43;;;;;;;7.55;2.38;;;16.80;98.30;;;;;;5079393;28;20029;-66
2021/09/13 07:55:10;;;;;;;7.50;2.00;;;16.80;98.40;;;;;;5082920;28;20024;-66
2021/09/13 07:57:37;;;;;;;6.03;1.52;;;16.80;98.20;;;;;;5081632;28;20032;-66
2021/09/13 08:00:04;;;;;;;5.97;1.73;;;16.70;98.30;;;;;;5079483;28;20055;-65
2021/09/13 08:02:31;;;;;;;4.75;1.98;;;16.80;98.20;;;;;;5079288;28;20440;-66
2021/09/13 08:04:59;;;;;;;4.85;1.75;;;16.70;98.10;;;;;;5084381;28;20016;-65
2021/09/13 08:07:25;;;;;;;10.98;2.58;;;16.80;98.30;;;;;;5083881;28;20058;-65
2021/09/13 08:09:51;;;;;;;6.20;1.60;;;16.80;97.90;;;;;;5086337;28;20548;-67
2021/09/13 08:12:17;;;;;;;8.40;2.00;;;16.80;98.20;;;;;;5080669;28;20043;-66
2021/09/13 08:14:43;;;;;;;6.05;2.00;;;16.70;98.30;;;;;;5081093;28;20051;-66
2021/09/13 08:17:09;;;;;;;8.50;2.33;;;16.70;98.60;;;;;;5085861;28;20044;-68
2021/09/13 08:19:39;;;;;;;6.70;2.05;;;16.70;98.50;;;;;;5087229;28;20051;-68
2021/09/13 08:22:05;;;;;;;6.30;1.65;;;16.70;98.10;;;;;;5084769;28;20081;-66
2021/09/13 08:24:31;;;;;;;4.78;1.70;;;16.70;98.40;;;;;;5084803;28;20036;-67
2021/09/13 08:26:57;;;;;;;4.88;1.60;;;16.80;98.60;;;;;;5083717;28;20081;-67
2021/09/13 08:29:23;;;;;;;8.07;2.00;;;16.80;98.60;;;;;;5083056;28;20039;-67
2021/09/13 08:31:48;;;;;;;8.77;1.92;;;16.80;98.60;;;;;;5085839;28;20048;-67
2021/09/13 08:34:16;;;;;;;5.53;1.63;;;16.80;98.70;;;;;;5084144;28;20126;-67
2021/09/13 08:36:43;;;;;;;6.57;1.88;;;16.90;98.80;;;;;;5086371;28;20032;-67
2021/09/13 08:39:08;;;;;;;8.15;2.20;;;16.90;98.70;;;;;;5086712;28;20477;-67
2021/09/13 08:41:34;;;;;;;6.53;1.90;;;16.90;98.40;;;;;;5089306;28;20085;-67
2021/09/13 08:44:01;;;;;;;6.68;1.58;;;16.90;98.30;;;;;;5088832;28;20028;-67
2021/09/13 08:46:52;;;;;;;5.80;1.80;;;16.90;98.30;;;;;;5089385;28;20043;-67
2021/09/13 08:51:56;;;;;;;7.90;2.25;;;17.00;98.10;;;;;;5087161;28;20027;-67
2021/09/13 08:54:25;;;;;;;5.60;1.90;;;17.10;97.70;;;;;;5082002;28;20033;-67
2021/09/13 08:56:57;;;;;;;5.43;2.20;;;17.20;97.70;;;;;;5090875;28;20074;-67
2021/09/13 08:59:24;;;;;;;5.95;1.40;;;17.20;97.30;;;;;;5082894;28;20047;-67
2021/09/13 09:01:52;;;;;;;6.93;1.67;;;17.20;97.30;;;;;;5084995;28;20050;-67
2021/09/13 09:04:18;;;;;;;5.03;1.67;;;17.10;96.60;;;;;;5068385;28;20032;-67
2021/09/13 09:06:45;;;;;;;5.32;1.55;;;17.10;97.00;;;;;;5087674;28;20056;-67
2021/09/13 09:09:20;;;;;;;5.90;1.73;;;17.00;97.00;;;;;;5081127;28;20738;-67
2021/09/13 09:11:56;;;;;;;4.75;1.80;;;17.10;97.40;;;;;;5087400;28;20032;-67
2021/09/13 09:14:29;;;;;;;5.65;1.60;;;17.20;97.40;;;;;;5083404;28;20036;-67
2021/09/13 09:16:57;;;;;;;4.13;1.45;;;17.30;97.40;;;;;;5081232;28;20028;-67
2021/09/13 09:19:23;;;;;;;5.28;1.70;;;17.40;97.20;;;;;;5054225;28;20032;-67
2021/09/13 09:21:48;;;;;;;9.15;2.10;;;17.30;97.10;;;;;;5077849;28;20562;-67
2021/09/13 09:24:16;;;;;;;5.57;2.05;;;17.30;97.10;;;;;;5083307;28;20126;-67
2021/09/13 09:27:00;;;;;;;4.03;1.38;;;17.30;96.70;;;;;;5084373;28;20086;-67
2021/09/13 09:29:28;;;;;;;3.47;1.33;;;17.30;96.60;;;;;;5072906;28;20044;-67
2021/09/13 09:31:57;;;;;;;3.30;1.25;;;17.30;96.50;;;;;;5089607;28;20524;-67
2021/09/13 09:34:25;;;;;;;5.80;1.70;;;17.40;96.50;;;;;;5075014;28;20489;-67
2021/09/13 09:37:00;;;;;;;5.25;1.77;;;17.50;96.60;;;;;;5083627;28;20036;-67
2021/09/13 09:39:39;;;;;;;5.72;1.40;;;17.60;95.90;;;;;;5069146;28;20818;-67
2021/09/13 09:42:07;;;;;;;5.10;1.42;;;17.60;95.80;;;;;;5083013;28;20055;-67
2021/09/13 09:44:33;;;;;;;3.88;1.67;;;17.80;95.80;;;;;;5082208;28;20032;-67
2021/09/13 09:47:08;;;;;;;6.05;1.55;;;17.90;95.50;;;;;;5081671;28;20440;-67
2021/09/13 09:49:43;;;;;;;6.60;1.25;;;18.00;94.60;;;;;;5080421;28;20044;-67
2021/09/13 09:52:09;;;;;;;3.42;1.17;;;18.00;94.20;;;;;;5084979;28;20085;-67
2021/09/13 09:54:35;;;;;;;3.75;1.55;;;18.10;94.40;;;;;;5083907;28;20545;-68
2021/09/13 09:57:07;;;;;;;5.88;1.33;;;18.20;94.50;;;;;;5086327;28;20462;-67
2021/09/13 09:59:36;;;;;;;3.90;1.30;;;18.20;94.30;;;;;;5078853;28;20035;-67
2021/09/13 10:02:13;;;;;;;3.83;1.10;;;18.20;94.10;;;;;;5061921;28;20024;-67
2021/09/13 10:04:40;;;;;;;5.28;1.23;;;18.20;94.00;;;;;;5085475;28;20115;-67
2021/09/13 10:07:07;;;;;;;6.20;1.50;;;18.20;94.00;;;;;;5083739;28;20028;-68
2021/09/13 10:09:33;;;;;;;3.75;1.20;;;18.20;93.60;;;;;;5080373;28;20103;-67
2021/09/13 10:12:01;;;;;;;3.60;1.17;;;18.10;93.20;;;;;;5085047;28;20127;-67
2021/09/13 10:14:32;;;;;;;5.50;1.30;;;18.00;93.40;;;;;;5082769;28;20051;-67
2021/09/13 10:16:58;;;;;;;5.28;1.30;;;18.00;93.50;;;;;;5080560;28;20028;-66
2021/09/13 10:19:25;;;;;;;3.40;1.08;;;17.90;93.40;;;;;;5078993;28;20095;-67
2021/09/13 10:21:52;;;;;;;4.07;1.20;;;17.80;93.40;;;;;;5080290;28;20396;-67
2021/09/13 10:24:24;;;;;;;4.03;1.58;;;17.80;93.80;;;;;;5081635;28;20047;-67
2021/09/13 10:26:54;;;;;;;;;;;17.80;94.10;;;;;;5080819;28;20024;-67
2021/09/13 10:29:25;;;;;;;7.93;1.60;;;17.70;94.40;;;;;;5079872;28;20011;-67
2021/09/13 10:31:50;;;;;;;8.63;1.90;;;17.60;94.70;;;;;;5081747;28;20039;-67
2021/09/13 10:34:19;;;;;;;5.50;1.80;;;17.60;95.00;;;;;;5066278;28;20082;-67
2021/09/13 10:37:18;;;;;;;4.97;1.35;;;17.60;94.90;;;;;;5081782;28;20063;-67
2021/09/13 10:39:54;;;;;;;7.50;1.20;;;17.70;95.00;;;;;;5079576;28;20658;-67
2021/09/13 10:42:36;;;;;;;4.90;1.60;;;17.60;94.90;;;;;;5083473;28;20094;-67
2021/09/13 10:45:03;;;;;;;6.80;1.50;;;17.60;95.10;;;;;;5081620;28;20039;-67
2021/09/13 10:47:29;;;;;;;5.53;1.63;;;17.50;95.00;;;;;;5083055;28;20401;-67
2021/09/13 10:50:18;;;;;;;5.75;1.40;;;17.50;95.10;;;;;;5079564;28;20473;-66
2021/09/13 10:52:45;;;;;;;4.30;1.20;;;17.50;95.30;;;;;;5082342;28;20028;-66
2021/09/13 10:55:16;;;;;;;3.95;1.23;;;17.50;95.20;;;;;;5082474;28;20143;-66
2021/09/13 10:58:06;;;;;;;4.63;1.30;;;17.60;95.10;;;;;;5081555;28;20051;-67
2021/09/13 11:00:37;;;;;;;4.57;1.20;;;17.70;94.80;;;;;;5075466;28;20593;-67
2021/09/13 11:03:27;;;;;;;4.85;1.50;;;18.00;94.70;;;;;;5081423;28;20101;-67
2021/09/13 11:06:05;;;;;;;4.15;1.55;;;18.20;94.50;;;;;;5082814;28;20027;-66
2021/09/13 11:08:42;;;;;;;7.28;1.27;;;18.30;93.80;;;;;;5079264;28;20074;-66
2021/09/13 11:11:09;;;;;;;5.13;1.30;;;18.40;93.80;;;;;;5083375;28;20413;-66
2021/09/13 11:13:35;;;;;;;3.63;1.20;;;18.40;93.60;;;;;;5085221;28;20036;-67
2021/09/13 11:16:01;;;;;;;5.15;1.20;;;18.30;93.10;;;;;;5087601;28;20034;-66
2021/09/13 11:18:34;;;;;;;5.35;1.10;;;18.30;93.20;;;;;;5080675;28;20028;-67
2021/09/13 11:21:25;;;;;;;33.42;13.73;;;18.20;92.90;;;;;;5082168;28;20024;-68
2021/09/13 11:24:03;;;;;;;37.05;16.30;;;18.20;93.20;;;;;;5082898;28;20032;-66
2021/09/13 11:26:32;;;;;;;92.05;40.95;;;18.30;93.40;;;;;;5083295;28;20035;-66
2021/09/13 11:29:09;;;;;;;438.45;270.45;;;18.40;93.80;;;;;;5084549;28;20031;-65
2021/09/13 11:31:38;;;;;;;642.33;461.80;;;18.40;93.70;;;;;;5087616;28;20102;-67
2021/09/13 11:34:19;;;;;;;62.85;41.08;;;18.60;93.60;;;;;;5088210;28;20035;-66
2021/09/13 11:36:50;;;;;;;76.85;45.97;;;18.50;92.80;;;;;;5087041;28;20123;-67
2021/09/13 11:39:17;;;;;;;10.38;5.90;;;18.50;92.80;;;;;;5091061;28;20031;-67
2021/09/13 11:42:03;;;;;;;5.90;1.48;;;18.60;92.70;;;;;;5087922;28;20028;-67
2021/09/13 11:44:30;;;;;;;2.22;0.88;;;18.70;92.40;;;;;;5089676;28;20478;-67
2021/09/13 11:47:05;;;;;;;4.03;1.10;;;18.80;92.50;;;;;;5091191;28;20397;-67
2021/09/13 11:49:39;;;;;;;5.28;1.52;;;18.90;92.30;;;;;;5090312;28;20073;-67
2021/09/13 11:52:06;;;;;;;4.97;1.30;;;18.90;91.40;;;;;;5091352;28;20099;-65
2021/09/13 11:54:39;;;;;;;4.63;1.52;;;18.90;91.80;;;;;;5088117;28;20028;-66
2021/09/13 11:57:17;;;;;;;3.03;1.30;;;18.90;91.80;;;;;;5096672;28;20031;-67
2021/09/13 12:00:13;;;;;;;2.80;1.15;;;19.00;91.80;;;;;;5077582;28;20035;-67
2021/09/13 12:02:42;;;;;;;5.25;1.20;;;19.20;91.10;;;;;;5072832;28;20055;-68
2021/09/13 12:05:13;;;;;;;5.53;1.08;;;19.40;88.60;;;;;;5087253;28;20028;-67
2021/09/13 12:07:39;;;;;;;2.03;1.00;;;19.20;89.40;;;;;;5088122;28;20032;-67
2021/09/13 12:10:07;;;;;;;5.43;1.10;;;19.30;90.00;;;;;;5083556;28;20035;-67
2021/09/13 12:12:35;;;;;;;4.03;1.42;;;19.30;90.50;;;;;;5084169;28;20028;-67
2021/09/13 12:15:07;;;;;;;4.47;1.00;;;19.20;90.70;;;;;;5086106;28;20078;-67
2021/09/13 12:18:03;;;;;;;4.82;1.30;;;19.10;90.00;;;;;;5084279;28;20089;-67
2021/09/13 12:20:40;;;;;;;3.22;1.20;;;19.00;90.70;;;;;;5059847;28;20115;-67
2021/09/13 12:23:11;;;;;;;3.92;1.20;;;18.90;90.90;;;;;;5081470;28;20493;-66
2021/09/13 12:25:45;;;;;;;2.45;1.15;;;18.60;90.20;;;;;;5086137;28;20027;-66
2021/09/13 12:28:18;;;;;;;3.92;1.42;;;18.50;90.90;;;;;;5082269;28;20024;-67
2021/09/13 12:31:00;;;;;;;4.00;1.80;;;18.40;91.00;;;;;;5084012;28;20021;-67
2021/09/13 12:33:55;;;;;;;5.60;1.33;;;18.40;91.80;;;;;;5086869;28;20481;-66
2021/09/13 12:36:22;;;;;;;4.60;2.00;;;18.30;91.80;;;;;;5074573;28;20389;-66
2021/09/13 12:38:50;;;;;;;5.15;1.30;;;18.30;91.80;;;;;;5085821;28;20036;-67
2021/09/13 12:41:39;;;;;;;3.13;0.90;;;18.30;92.00;;;;;;5085338;28;20028;-66
2021/09/13 12:44:23;;;;;;;5.80;1.30;;;18.30;91.50;;;;;;5064713;28;20027;-66
2021/09/13 12:46:52;;;;;;;3.67;1.00;;;18.40;91.00;;;;;;5082792;28;20111;-67
2021/09/13 12:49:18;;;;;;;2.22;1.00;;;18.50;91.30;;;;;;5086707;28;20074;-67
2021/09/13 12:52:01;;;;;;;3.47;1.00;;;18.50;91.20;;;;;;5083766;28;20036;-67
2021/09/13 12:54:31;;;;;;;5.20;1.30;;;18.70;91.20;;;;;;5083301;28;20073;-67
2021/09/13 12:56:58;;;;;;;3.55;0.98;;;18.80;90.90;;;;;;5081158;28;20085;-68
2021/09/13 12:59:24;;;;;;;5.22;1.20;;;18.80;90.50;;;;;;5058637;28;20028;-67